Beaumont, Kentucky
Current Conditions -  °F | °C
As of 9:15 AM on Monday 24 Nov 2014 (Local Time) from KGLW Reporting Station
Overcast Overcast  
Wind Chill: 55°   Ceiling: 3100
Heat Index: 55°   Visibility: 10mi
Dew Point: 46°   Wind: 24mph
Humidity: 74%   Direction: 250°WSW
Pressure: 29.63"   Gusts: 35mph
Location:  36.88°N, 85.65°W
Report Text: KGLW 241515Z AUTO 25021G30KT 10SM SCT023 BKN031 OVC047 13/08 A2963 RMK AO2 T01250079
Loading
Personal Weather Stations






























Interactive Weather Map New forecast layout! Learn more

10-Day Weather Forecast

Advertisements
Track Severe Weather on mobile